Time;durP1;ratioP1;P1;durP2;ratioP2;P2;SDS_P1;SDS_P2;PMS_P1;PMS_P2;Temp;Humidity;BMP_temperature;BMP_pressure;BME280_temperature;BME280_humidity;BME280_pressure;Samples;Min_cycle;Max_cycle;Signal;HPM_P1;HPM_P2
2022/01/16 00:01:06;;;;;;;;;;;5.60;99.90;;;;;;5042505;28;19937;-80
2022/01/16 00:06:24;;;;;;;;;;;5.70;99.90;;;;;;5060356;28;19937;-79
2022/01/16 00:08:54;;;;;;;;;;;5.60;99.90;;;;;;4958816;28;19930;-79
2022/01/16 00:11:23;;;;;;;;;;;5.00;99.90;;;;;;5032496;28;19949;-81
2022/01/16 00:13:51;;;;;;;;;;;5.70;99.90;;;;;;5020238;28;19933;-79
2022/01/16 00:16:19;;;;;;;;;;;5.50;99.90;;;;;;4964835;28;19930;-81
2022/01/16 00:18:49;;;;;;;;;;;5.50;99.90;;;;;;5046639;28;20043;-79
2022/01/16 00:21:18;;;;;;;;;;;5.50;99.90;;;;;;5046746;28;19935;-80
2022/01/16 00:23:45;;;;;;;;;;;5.50;99.90;;;;;;5048063;28;19930;-80
2022/01/16 00:26:14;;;;;;;;;;;5.50;99.90;;;;;;5047890;28;19937;-78
2022/01/16 00:28:43;;;;;;;;;;;5.50;99.90;;;;;;4978080;28;19937;-79
2022/01/16 00:31:13;;;;;;;;;;;5.50;99.90;;;;;;5044859;28;19942;-80
2022/01/16 00:33:44;;;;;;;;;;;5.60;99.90;;;;;;4965936;28;19930;-80
2022/01/16 00:36:17;;;;;;;;;;;5.50;99.90;;;;;;5048882;28;19934;-80
2022/01/16 00:38:46;;;;;;;;;;;5.50;99.90;;;;;;4977612;28;20743;-80
2022/01/16 00:41:15;;;;;;;;;;;5.50;99.90;;;;;;5059823;28;20264;-79
2022/01/16 00:43:42;;;;;;;;;;;5.50;99.90;;;;;;4980138;28;20009;-80
2022/01/16 00:46:10;;;;;;;;;;;5.10;99.90;;;;;;4980505;28;19937;-79
2022/01/16 00:48:38;;;;;;;;;;;5.50;99.90;;;;;;5036395;28;19933;-81
2022/01/16 00:51:06;;;;;;;;;;;5.60;99.90;;;;;;4980124;28;19933;-80
2022/01/16 00:53:34;;;;;;;;;;;5.50;99.90;;;;;;4980838;28;20605;-79
2022/01/16 00:56:03;;;;;;;;;;;5.60;99.90;;;;;;4977736;28;19933;-79
2022/01/16 00:58:32;;;;;;;;;;;4.60;99.90;;;;;;5040320;28;19934;-80
2022/01/16 01:01:00;;;;;;;;;;;6.40;99.90;;;;;;5044367;28;19927;-82
2022/01/16 01:03:29;;;;;;;;;;;6.90;99.90;;;;;;5043756;28;19930;-79
2022/01/16 01:05:57;;;;;;;;;;;5.90;99.90;;;;;;4980403;28;19932;-79
2022/01/16 01:08:28;;;;;;;;;;;5.80;99.90;;;;;;4980952;28;19930;-80
2022/01/16 01:10:57;;;;;;;;;;;6.00;99.90;;;;;;5046241;28;19926;-80
2022/01/16 01:16:04;;;;;;;;;;;6.00;99.90;;;;;;4980996;28;19937;-80
2022/01/16 01:18:34;;;;;;;;;;;6.20;99.90;;;;;;5041707;28;19933;-80
2022/01/16 01:21:05;;;;;;;;;;;6.10;99.90;;;;;;5037406;28;19926;-79
2022/01/16 01:23:33;;;;;;;;;;;6.10;99.90;;;;;;4969582;28;19926;-82
2022/01/16 01:26:01;;;;;;;;;;;6.10;99.90;;;;;;4966419;28;19930;-80
2022/01/16 01:28:30;;;;;;;;;;;6.10;99.90;;;;;;5054765;28;20226;-80
2022/01/16 01:30:58;;;;;;;;;;;6.10;99.90;;;;;;5038210;28;19930;-81
2022/01/16 01:33:27;;;;;;;;;;;6.00;99.90;;;;;;4961933;28;19927;-81
2022/01/16 01:35:54;;;;;;;;;;;5.70;99.90;;;;;;5047387;28;19952;-80
2022/01/16 01:38:22;;;;;;;;;;;6.00;99.90;;;;;;5043614;28;19949;-79
2022/01/16 01:40:51;;;;;;;;;;;5.90;99.90;;;;;;5031703;28;19926;-81
2022/01/16 01:51:38;;;;;;;;;;;5.80;99.90;;;;;;4943914;28;19941;-80
2022/01/16 01:54:06;;;;;;;;;;;5.80;99.90;;;;;;4976889;28;20006;-80
2022/01/16 01:56:36;;;;;;;;;;;7.30;99.90;;;;;;5043400;28;19927;-80
2022/01/16 01:59:04;;;;;;;;;;;5.80;99.90;;;;;;4978413;28;19930;-80
2022/01/16 02:01:32;;;;;;;;;;;5.80;99.90;;;;;;5029830;28;19926;-81
2022/01/16 02:04:00;;;;;;;;;;;5.90;99.90;;;;;;5030348;28;19934;-79
2022/01/16 02:06:28;;;;;;;;;;;5.90;99.90;;;;;;4979917;28;19937;-80
2022/01/16 02:08:57;;;;;;;;;;;5.90;99.90;;;;;;4980123;28;19926;-81
2022/01/16 02:11:28;;;;;;;;;;;6.90;99.90;;;;;;4980325;28;20002;-81
2022/01/16 02:33:22;;;;;;;;;;;6.20;99.90;;;;;;5045741;28;19926;-80
2022/01/16 02:35:54;;;;;;;;;;;6.20;99.90;;;;;;5046553;28;19926;-80
2022/01/16 02:38:22;;;;;;;;;;;6.30;99.90;;;;;;5037869;28;19927;-81
2022/01/16 02:40:57;;;;;;;;;;;6.30;99.90;;;;;;4973584;28;19940;-80
2022/01/16 02:43:31;;;;;;;;;;;6.20;99.90;;;;;;5040252;28;19927;-79
2022/01/16 02:48:46;;;;;;;;;;;6.30;99.90;;;;;;4981501;28;19926;-81
2022/01/16 02:51:15;;;;;;;;;;;6.40;99.90;;;;;;4982772;28;19927;-82
2022/01/16 02:53:43;;;;;;;;;;;6.30;99.90;;;;;;5053523;28;19926;-80
2022/01/16 02:56:13;;;;;;;;;;;6.30;99.90;;;;;;5047889;28;19934;-80
2022/01/16 02:58:42;;;;;;;;;;;6.10;99.90;;;;;;5049945;28;20092;-80
2022/01/16 03:01:10;;;;;;;;;;;6.40;99.90;;;;;;4990880;28;19937;-80
2022/01/16 03:03:39;;;;;;;;;;;6.70;99.90;;;;;;5032189;28;19926;-80
2022/01/16 03:06:06;;;;;;;;;;;6.50;99.90;;;;;;5031433;28;19926;-80
2022/01/16 03:08:34;;;;;;;;;;;6.50;99.90;;;;;;5038695;28;19930;-80
2022/01/16 03:13:50;;;;;;;;;;;6.50;99.90;;;;;;5063986;28;19926;-80
2022/01/16 03:16:19;;;;;;;;;;;6.60;99.90;;;;;;5065346;28;19933;-80
2022/01/16 03:24:31;;;;;;;;;;;6.60;99.90;;;;;;4966531;28;19948;-79
2022/01/16 03:27:00;;;;;;;;;;;6.70;99.90;;;;;;5051179;28;20281;-80
2022/01/16 03:29:33;;;;;;;;;;;6.70;99.90;;;;;;5052191;28;19926;-81
2022/01/16 03:32:02;;;;;;;;;;;6.80;99.90;;;;;;4984549;28;19926;-81
2022/01/16 03:34:29;;;;;;;;;;;6.70;99.90;;;;;;5061079;28;19933;-81
2022/01/16 03:36:57;;;;;;;;;;;6.80;99.90;;;;;;5046981;28;19933;-81
2022/01/16 03:39:26;;;;;;;;;;;7.20;99.90;;;;;;5048728;28;19933;-80
2022/01/16 03:41:55;;;;;;;;;;;6.80;99.90;;;;;;4982800;28;19930;-84
2022/01/16 03:44:23;;;;;;;;;;;6.90;99.90;;;;;;5050796;28;19927;-84
2022/01/16 03:46:51;;;;;;;;;;;6.90;99.90;;;;;;5052699;28;19932;-80
2022/01/16 03:49:20;;;;;;;;;;;6.90;99.90;;;;;;5042815;28;19940;-80
2022/01/16 03:51:50;;;;;;;;;;;6.90;99.90;;;;;;5055228;28;19927;-80
2022/01/16 03:54:19;;;;;;;;;;;7.10;99.90;;;;;;4697174;28;10000524;-79
2022/01/16 03:56:47;;;;;;;;;;;6.60;99.90;;;;;;5045969;28;19934;-79
2022/01/16 03:59:16;;;;;;;;;;;7.00;99.90;;;;;;4975895;28;19937;-80
2022/01/16 04:01:44;;;;;;;;;;;7.00;99.90;;;;;;5043506;28;20374;-80
2022/01/16 04:04:11;;;;;;;;;;;7.00;99.90;;;;;;5056609;28;19933;-81
2022/01/16 04:06:39;;;;;;;;;;;7.30;99.90;;;;;;4983537;28;20289;-81
2022/01/16 04:09:07;;;;;;;;;;;6.80;99.90;;;;;;5051199;28;19938;-80
2022/01/16 04:11:37;;;;;;;;;;;7.00;99.90;;;;;;5033945;28;19930;-79
2022/01/16 04:14:14;;;;;;;;;;;7.10;99.90;;;;;;4983418;28;19929;-79
2022/01/16 04:16:42;;;;;;;;;;;7.20;99.90;;;;;;4983405;28;20383;-80
2022/01/16 04:19:10;;;;;;;;;;;7.00;99.90;;;;;;5054825;28;19945;-81
2022/01/16 04:21:41;;;;;;;;;;;7.10;99.90;;;;;;5046458;28;19941;-81
2022/01/16 04:24:08;;;;;;;;;;;6.60;99.90;;;;;;4947803;28;19927;-80
2022/01/16 04:26:36;;;;;;;;;;;7.00;99.90;;;;;;5049454;28;19933;-80
2022/01/16 04:29:04;;;;;;;;;;;7.00;99.90;;;;;;4977097;28;19936;-81
2022/01/16 04:31:32;;;;;;;;;;;7.00;99.90;;;;;;5019866;28;19930;-81
2022/01/16 04:33:59;;;;;;;;;;;6.90;99.90;;;;;;4986077;28;19936;-79
2022/01/16 04:36:28;;;;;;;;;;;6.80;99.90;;;;;;4972916;28;19937;-81
2022/01/16 04:38:56;;;;;;;;;;;6.80;99.90;;;;;;5049744;28;19926;-81
2022/01/16 04:44:10;;;;;;;;;;;6.70;99.90;;;;;;5046755;28;19938;-80
2022/01/16 04:46:38;;;;;;;;;;;7.50;99.90;;;;;;5048384;28;19937;-80
2022/01/16 04:49:06;;;;;;;;;;;6.60;99.90;;;;;;4969384;28;20360;-80
2022/01/16 04:51:34;;;;;;;;;;;6.60;99.90;;;;;;5064869;28;19930;-81
2022/01/16 04:54:01;;;;;;;;;;;5.90;99.90;;;;;;4982839;28;19957;-79
2022/01/16 04:56:29;;;;;;;;;;;6.60;99.90;;;;;;5052026;28;19940;-80
2022/01/16 04:58:57;;;;;;;;;;;6.70;99.90;;;;;;5047749;28;19926;-82
2022/01/16 05:01:25;;;;;;;;;;;6.40;99.90;;;;;;5066229;28;19925;-80
2022/01/16 05:03:53;;;;;;;;;;;6.30;99.90;;;;;;5034254;28;19932;-82
2022/01/16 05:06:21;;;;;;;;;;;6.30;99.90;;;;;;5033994;28;20433;-80
2022/01/16 05:08:48;;;;;;;;;;;6.20;99.90;;;;;;5033389;28;19926;-82
2022/01/16 05:11:22;;;;;;;;;;;6.20;99.90;;;;;;5052717;28;19933;-80
2022/01/16 05:16:40;;;;;;;;;;;6.20;99.90;;;;;;4949442;28;19933;-80
2022/01/16 05:19:09;;;;;;;;;;;6.20;99.90;;;;;;4983661;28;19926;-81
2022/01/16 05:21:37;;;;;;;;;;;6.20;99.90;;;;;;5034537;28;19922;-81
2022/01/16 05:24:10;;;;;;;;;;;6.20;99.90;;;;;;5066925;28;19941;-81
2022/01/16 05:26:40;;;;;;;;;;;6.20;99.90;;;;;;4982942;28;19933;-81
2022/01/16 05:29:09;;;;;;;;;;;6.10;99.90;;;;;;5050050;28;19973;-81
2022/01/16 05:31:36;;;;;;;;;;;6.10;99.90;;;;;;5064484;28;19926;-82
2022/01/16 05:34:04;;;;;;;;;;;6.00;99.90;;;;;;5046422;28;19929;-81
2022/01/16 05:36:32;;;;;;;;;;;6.00;99.90;;;;;;4985223;28;19937;-82
2022/01/16 05:39:00;;;;;;;;;;;6.10;99.90;;;;;;4981976;28;19930;-83
2022/01/16 05:41:28;;;;;;;;;;;5.90;99.90;;;;;;4954305;28;19934;-80
2022/01/16 05:43:56;;;;;;;;;;;5.60;99.90;;;;;;5045971;28;19926;-81
2022/01/16 05:46:23;;;;;;;;;;;6.10;99.90;;;;;;4979636;28;19927;-82
2022/01/16 05:48:51;;;;;;;;;;;5.80;99.90;;;;;;4973927;28;19934;-81
2022/01/16 05:51:19;;;;;;;;;;;5.90;99.90;;;;;;4980083;28;19937;-81
2022/01/16 05:53:48;;;;;;;;;;;5.90;99.90;;;;;;4980980;28;19930;-83
2022/01/16 05:56:16;;;;;;;;;;;5.90;99.90;;;;;;4979596;28;19930;-80
2022/01/16 05:58:43;;;;;;;;;;;5.90;99.90;;;;;;4980466;28;20373;-80
2022/01/16 06:01:11;;;;;;;;;;;6.00;99.90;;;;;;4981746;28;19934;-83
2022/01/16 06:03:39;;;;;;;;;;;5.90;99.90;;;;;;4980625;28;20004;-81
2022/01/16 06:06:07;;;;;;;;;;;5.80;99.90;;;;;;5030512;28;19930;-80
2022/01/16 06:08:38;;;;;;;;;;;6.00;99.90;;;;;;5026530;28;19937;-80
2022/01/16 06:11:06;;;;;;;;;;;6.10;99.90;;;;;;4972317;28;19937;-80
2022/01/16 06:13:34;;;;;;;;;;;6.10;99.90;;;;;;4962946;28;19941;-80
2022/01/16 06:16:03;;;;;;;;;;;6.50;99.90;;;;;;5027435;28;19938;-79
2022/01/16 06:18:31;;;;;;;;;;;6.30;99.90;;;;;;4964668;28;19930;-82
2022/01/16 06:20:59;;;;;;;;;;;6.40;99.90;;;;;;5035365;28;19936;-81
2022/01/16 06:23:27;;;;;;;;;;;6.70;99.90;;;;;;5011198;28;19934;-79
2022/01/16 06:25:55;;;;;;;;;;;6.90;99.90;;;;;;5026389;28;19930;-80
2022/01/16 06:28:27;;;;;;;;;;;6.60;99.90;;;;;;5034658;28;19941;-81
2022/01/16 06:30:55;;;;;;;;;;;6.70;99.90;;;;;;5025452;28;19930;-80
2022/01/16 06:33:24;;;;;;;;;;;6.70;99.90;;;;;;4971023;28;19933;-80
2022/01/16 06:35:52;;;;;;;;;;;6.80;99.90;;;;;;5028205;28;19931;-80
2022/01/16 06:38:19;;;;;;;;;;;6.80;99.90;;;;;;4976344;28;20061;-79
2022/01/16 06:40:47;;;;;;;;;;;6.90;99.90;;;;;;5053997;28;19924;-80
2022/01/16 06:43:15;;;;;;;;;;;6.90;99.90;;;;;;5038333;28;19937;-80
2022/01/16 06:45:44;;;;;;;;;;;7.00;99.90;;;;;;4632443;28;10000294;-80
2022/01/16 06:48:12;;;;;;;;;;;7.00;99.90;;;;;;5040353;28;19934;-80
2022/01/16 06:50:40;;;;;;;;;;;7.00;99.90;;;;;;5063273;28;19941;-81
2022/01/16 06:53:07;;;;;;;;;;;7.10;99.90;;;;;;5040518;28;19938;-81
2022/01/16 06:55:35;;;;;;;;;;;7.10;99.90;;;;;;5030089;28;20327;-80
2022/01/16 06:58:03;;;;;;;;;;;7.10;99.90;;;;;;5046371;28;19926;-83
2022/01/16 07:00:30;;;;;;;;;;;7.20;99.90;;;;;;5077817;28;20330;-80
2022/01/16 07:02:58;;;;;;;;;;;7.20;99.90;;;;;;5046984;28;20453;-81
2022/01/16 07:05:26;;;;;;;;;;;8.80;99.90;;;;;;5080907;28;19924;-80
2022/01/16 07:07:54;;;;;;;;;;;7.30;99.90;;;;;;5078441;28;19925;-81
2022/01/16 07:10:23;;;;;;;;;;;7.30;99.90;;;;;;5024692;28;19933;-80
2022/01/16 07:12:51;;;;;;;;;;;7.30;99.90;;;;;;5050183;28;19957;-81
2022/01/16 07:15:19;;;;;;;;;;;7.40;99.90;;;;;;5019463;28;19925;-81
2022/01/16 07:17:47;;;;;;;;;;;7.40;99.90;;;;;;5065155;28;19928;-80
2022/01/16 07:20:15;;;;;;;;;;;7.40;99.90;;;;;;5063967;28;20660;-81
2022/01/16 07:22:44;;;;;;;;;;;7.70;99.90;;;;;;5047124;28;19935;-80
2022/01/16 07:25:12;;;;;;;;;;;8.30;99.90;;;;;;5064272;28;19935;-80
2022/01/16 07:27:40;;;;;;;;;;;7.40;99.90;;;;;;5047709;28;19960;-80
2022/01/16 07:30:10;;;;;;;;;;;7.40;99.90;;;;;;5051786;28;19924;-80
2022/01/16 07:32:38;;;;;;;;;;;7.30;99.90;;;;;;5079516;28;19932;-79
2022/01/16 07:35:06;;;;;;;;;;;7.50;99.90;;;;;;5064160;28;19929;-79
2022/01/16 07:37:55;;;;;;;;;;;7.30;99.90;;;;;;5036449;28;19929;-80
2022/01/16 07:40:23;;;;;;;;;;;7.30;99.90;;;;;;5061503;28;19952;-80
2022/01/16 07:42:51;;;;;;;;;;;7.30;99.90;;;;;;5063293;28;19925;-80
2022/01/16 07:45:19;;;;;;;;;;;7.30;99.90;;;;;;5061979;28;19949;-80
2022/01/16 07:47:47;;;;;;;;;;;7.50;99.90;;;;;;5059542;28;20008;-80
2022/01/16 07:50:16;;;;;;;;;;;7.30;99.90;;;;;;5027384;28;19925;-81
2022/01/16 07:52:48;;;;;;;;;;;7.30;99.90;;;;;;5065454;28;19937;-80
2022/01/16 07:55:17;;;;;;;;;;;7.30;99.90;;;;;;5056683;28;19952;-81
2022/01/16 07:57:44;;;;;;;;;;;7.20;99.90;;;;;;5069891;28;19925;-83
2022/01/16 08:00:30;;;;;;;;;;;7.30;99.90;;;;;;5014152;28;19934;-81
2022/01/16 08:02:58;;;;;;;;;;;7.20;99.90;;;;;;5062492;28;19930;-81
2022/01/16 08:05:26;;;;;;;;;;;7.20;99.90;;;;;;5043975;28;19937;-80
2022/01/16 08:07:54;;;;;;;;;;;7.30;99.90;;;;;;4985115;28;20224;-82
2022/01/16 08:10:26;;;;;;;;;;;7.30;99.90;;;;;;5052862;28;19938;-81
2022/01/16 08:12:54;;;;;;;;;;;7.20;99.90;;;;;;5013131;28;20123;-80
2022/01/16 08:15:23;;;;;;;;;;;7.20;99.90;;;;;;5029168;28;19927;-81
2022/01/16 08:17:51;;;;;;;;;;;7.20;99.90;;;;;;5041676;28;19926;-80
2022/01/16 08:20:22;;;;;;;;;;;7.20;99.90;;;;;;4981378;28;19936;-80
2022/01/16 08:22:50;;;;;;;;;;;7.00;99.90;;;;;;5050266;28;19930;-82
2022/01/16 08:25:18;;;;;;;;;;;7.30;99.90;;;;;;5050893;28;19926;-81
2022/01/16 08:27:45;;;;;;;;;;;7.20;99.90;;;;;;5051866;28;19930;-80
2022/01/16 08:30:13;;;;;;;;;;;7.30;99.90;;;;;;4964976;28;19926;-80
2022/01/16 08:32:43;;;;;;;;;;;7.30;99.90;;;;;;5031598;28;19938;-80
2022/01/16 08:35:12;;;;;;;;;;;7.30;99.90;;;;;;5047336;28;19937;-81
2022/01/16 08:37:40;;;;;;;;;;;7.20;99.90;;;;;;5047243;28;19930;-80
2022/01/16 08:40:08;;;;;;;;;;;7.30;99.90;;;;;;4979428;28;19926;-80
2022/01/16 08:42:37;;;;;;;;;;;7.30;99.90;;;;;;4978391;28;20434;-81
2022/01/16 08:45:04;;;;;;;;;;;7.30;99.90;;;;;;5048162;28;19932;-80
2022/01/16 08:47:34;;;;;;;;;;;7.30;99.90;;;;;;4751504;28;9999692;-81
2022/01/16 08:50:04;;;;;;;;;;;7.40;99.90;;;;;;5023240;28;19956;-80
2022/01/16 08:52:32;;;;;;;;;;;7.50;99.90;;;;;;5053624;28;19935;-81
2022/01/16 08:55:01;;;;;;;;;;;7.50;99.90;;;;;;4998438;28;19937;-80
2022/01/16 08:57:29;;;;;;;;;;;7.50;99.90;;;;;;4963014;28;19936;-80
2022/01/16 08:59:57;;;;;;;;;;;7.50;99.90;;;;;;5049796;28;19926;-80
2022/01/16 09:02:24;;;;;;;;;;;7.60;99.90;;;;;;4981678;28;19950;-81
2022/01/16 09:04:52;;;;;;;;;;;7.60;99.90;;;;;;4970693;28;20278;-81
2022/01/16 09:07:20;;;;;;;;;;;7.60;99.90;;;;;;5030508;28;19937;-80
2022/01/16 09:09:48;;;;;;;;;;;7.70;99.90;;;;;;5020007;28;19926;-80
2022/01/16 09:12:16;;;;;;;;;;;7.80;99.90;;;;;;4981171;28;19930;-80
2022/01/16 09:14:44;;;;;;;;;;;7.80;99.90;;;;;;5041302;28;19933;-81
2022/01/16 09:17:12;;;;;;;;;;;7.90;99.90;;;;;;5047100;28;19937;-79
2022/01/16 09:19:42;;;;;;;;;;;8.00;99.90;;;;;;5041998;28;19926;-80
2022/01/16 09:22:14;;;;;;;;;;;8.10;99.90;;;;;;4963296;28;19922;-79
2022/01/16 09:24:42;;;;;;;;;;;9.40;99.90;;;;;;5045319;28;19956;-79
2022/01/16 09:27:10;;;;;;;;;;;8.00;99.90;;;;;;5049661;28;19933;-80
2022/01/16 09:29:38;;;;;;;;;;;8.10;99.90;;;;;;5046503;28;19933;-80
2022/01/16 09:32:06;;;;;;;;;;;8.30;99.90;;;;;;5045251;28;19934;-79
2022/01/16 09:34:34;;;;;;;;;;;8.10;99.90;;;;;;5046141;28;19934;-80
2022/01/16 09:37:07;;;;;;;;;;;8.00;99.90;;;;;;5047034;28;19927;-82
2022/01/16 09:39:38;;;;;;;;;;;8.10;99.90;;;;;;5028480;28;19926;-80
2022/01/16 09:42:08;;;;;;;;;;;8.00;99.90;;;;;;5046973;28;19937;-81
2022/01/16 09:44:37;;;;;;;;;;;8.10;99.90;;;;;;5038056;28;19942;-80
2022/01/16 09:47:05;;;;;;;;;;;8.10;99.90;;;;;;5060350;28;19926;-79
2022/01/16 09:49:33;;;;;;;;;;;8.10;99.90;;;;;;4984035;28;19933;-80
2022/01/16 09:52:01;;;;;;;;;;;8.20;99.90;;;;;;4975896;28;19940;-80
2022/01/16 09:54:29;;;;;;;;;;;8.20;99.90;;;;;;5046777;28;19932;-81
2022/01/16 09:56:56;;;;;;;;;;;8.30;99.90;;;;;;5041774;28;19932;-80
2022/01/16 09:59:25;;;;;;;;;;;8.30;99.90;;;;;;5048712;28;19926;-80
2022/01/16 10:01:54;;;;;;;;;;;8.30;99.90;;;;;;5044463;28;19931;-81
2022/01/16 10:04:35;;;;;;;;;;;8.30;99.90;;;;;;5053135;28;19931;-80
2022/01/16 10:07:06;;;;;;;;;;;8.40;99.90;;;;;;5047550;28;19949;-81
2022/01/16 10:09:35;;;;;;;;;;;8.10;99.90;;;;;;5046985;28;19936;-81
2022/01/16 10:12:16;;;;;;;;;;;8.40;99.90;;;;;;5042485;28;19926;-81
2022/01/16 10:14:49;;;;;;;;;;;8.60;99.90;;;;;;5053357;28;19946;-80
2022/01/16 10:17:21;;;;;;;;;;;8.50;99.90;;;;;;5031723;28;20584;-80
2022/01/16 10:19:58;;;;;;;;;;;8.50;99.90;;;;;;5063483;28;19930;-80
2022/01/16 10:22:39;;;;;;;;;;;8.50;99.90;;;;;;4983498;28;19926;-80
2022/01/16 10:25:07;;;;;;;;;;;8.50;99.90;;;;;;5064466;28;19937;-80
2022/01/16 10:27:43;;;;;;;;;;;8.50;99.90;;;;;;5014353;28;19930;-81
2022/01/16 10:30:18;;;;;;;;;;;8.60;99.90;;;;;;5034321;28;19930;-79
2022/01/16 10:32:49;;;;;;;;;;;8.60;99.90;;;;;;4977178;28;19941;-80
2022/01/16 10:35:23;;;;;;;;;;;8.50;99.90;;;;;;5051896;28;19947;-81
2022/01/16 10:37:52;;;;;;;;;;;8.60;99.90;;;;;;4974723;28;19941;-80
2022/01/16 10:40:22;;;;;;;;;;;8.80;99.90;;;;;;5038571;28;19937;-82
2022/01/16 10:42:50;;;;;;;;;;;8.60;99.90;;;;;;5033804;28;19930;-80
2022/01/16 10:45:22;;;;;;;;;;;8.70;99.90;;;;;;4970862;28;19930;-80
2022/01/16 10:47:53;;;;;;;;;;;8.60;99.90;;;;;;5043305;28;19936;-79
2022/01/16 10:50:25;;;;;;;;;;;8.70;99.90;;;;;;5052719;28;19936;-81
2022/01/16 10:53:01;;;;;;;;;;;8.70;99.90;;;;;;4942241;28;19934;-82
2022/01/16 10:55:41;;;;;;;;;;;8.70;99.90;;;;;;5033793;28;19942;-79
2022/01/16 10:58:09;;;;;;;;;;;8.70;99.90;;;;;;5050998;28;19953;-80
2022/01/16 11:00:37;;;;;;;;;;;8.80;99.90;;;;;;5054024;28;19934;-79
2022/01/16 11:03:06;;;;;;;;;;;8.10;99.90;;;;;;5040168;28;19934;-80
2022/01/16 11:05:36;;;;;;;;;;;9.50;99.90;;;;;;5040897;28;19930;-81
2022/01/16 11:08:12;;;;;;;;;;;8.80;99.90;;;;;;4971417;28;19930;-81
2022/01/16 11:10:41;;;;;;;;;;;8.90;99.90;;;;;;5043824;28;20440;-81
2022/01/16 11:13:13;;;;;;;;;;;8.90;99.90;;;;;;5038879;28;19930;-80
2022/01/16 11:15:45;;;;;;;;;;;8.90;99.90;;;;;;5046272;28;19930;-82
2022/01/16 11:18:14;;;;;;;;;;;8.90;99.90;;;;;;5038217;28;20040;-79
2022/01/16 11:21:35;;;;;;;;;;;8.90;99.90;;;;;;4968553;28;19945;-80
2022/01/16 11:26:22;;;;;;;;;;;8.80;99.90;;;;;;4974716;28;19945;-80
2022/01/16 11:28:51;;;;;;;;;;;8.90;99.90;;;;;;5022235;28;19926;-80
2022/01/16 11:31:19;;;;;;;;;;;8.90;99.90;;;;;;4970573;28;19940;-80
2022/01/16 11:33:47;;;;;;;;;;;8.90;99.90;;;;;;4971287;28;19934;-80
2022/01/16 11:36:19;;;;;;;;;;;8.90;99.90;;;;;;5057023;28;19926;-80
2022/01/16 11:38:59;;;;;;;;;;;8.90;99.90;;;;;;5060239;28;19940;-80
2022/01/16 11:41:33;;;;;;;;;;;7.60;99.90;;;;;;4976487;28;19934;-80
2022/01/16 11:44:08;;;;;;;;;;;9.00;99.90;;;;;;5046636;28;19930;-80
2022/01/16 11:46:40;;;;;;;;;;;9.00;99.90;;;;;;4975589;28;19930;-82
2022/01/16 11:49:08;;;;;;;;;;;9.00;99.90;;;;;;5062202;28;19934;-81
2022/01/16 11:52:03;;;;;;;;;;;9.10;99.90;;;;;;5033755;28;19930;-83
2022/01/16 11:54:32;;;;;;;;;;;9.10;99.90;;;;;;5029539;28;19952;-82
2022/01/16 11:57:03;;;;;;;;;;;9.20;99.90;;;;;;4983421;28;19937;-83
2022/01/16 11:59:34;;;;;;;;;;;9.20;99.90;;;;;;5043687;28;19931;-83
2022/01/16 12:02:08;;;;;;;;;;;9.30;99.90;;;;;;5027876;28;20583;-80
2022/01/16 12:04:41;;;;;;;;;;;9.40;99.90;;;;;;5026465;28;19937;-80
2022/01/16 12:07:12;;;;;;;;;;;9.30;99.90;;;;;;5040955;28;19937;-81
2022/01/16 12:12:14;;;;;;;;;;;9.30;99.90;;;;;;5041706;28;19939;-80
2022/01/16 12:14:49;;;;;;;;;;;9.30;99.90;;;;;;5044904;28;20187;-83
2022/01/16 12:17:38;;;;;;;;;;;9.90;99.90;;;;;;5025419;28;19934;-81
2022/01/16 12:20:13;;;;;;;;;;;9.20;99.90;;;;;;4958578;28;19927;-81
2022/01/16 12:22:53;;;;;;;;;;;9.20;99.90;;;;;;5029610;28;19935;-81
2022/01/16 12:25:52;;;;;;;;;;;9.30;99.90;;;;;;5039212;28;19936;-80
2022/01/16 12:28:25;;;;;;;;;;;7.80;99.90;;;;;;5017869;28;19941;-81
2022/01/16 12:31:02;;;;;;;;;;;9.10;99.90;;;;;;5036172;28;19937;-81
2022/01/16 12:33:30;;;;;;;;;;;9.20;99.90;;;;;;5024786;28;19957;-80
2022/01/16 12:36:05;;;;;;;;;;;9.20;99.90;;;;;;4960192;28;19926;-83
2022/01/16 12:38:34;;;;;;;;;;;9.20;99.90;;;;;;4957980;28;19934;-79
2022/01/16 12:41:11;;;;;;;;;;;9.10;99.90;;;;;;4957293;28;19930;-80
2022/01/16 12:43:41;;;;;;;;;;;9.20;99.90;;;;;;4943310;28;19926;-82
2022/01/16 12:46:10;;;;;;;;;;;9.70;99.90;;;;;;5009066;28;19927;-81
2022/01/16 12:48:42;;;;;;;;;;;9.10;99.90;;;;;;5006765;28;19927;-81
2022/01/16 12:51:10;;;;;;;;;;;8.40;99.90;;;;;;5024891;28;19926;-84
2022/01/16 12:53:43;;;;;;;;;;;8.90;99.90;;;;;;5025712;28;19934;-80
2022/01/16 12:56:25;;;;;;;;;;;9.00;99.90;;;;;;5024181;28;19931;-82
2022/01/16 12:58:54;;;;;;;;;;;9.20;99.90;;;;;;5025443;28;19933;-80
2022/01/16 13:01:26;;;;;;;;;;;9.00;99.90;;;;;;5008194;28;19934;-80
2022/01/16 13:03:54;;;;;;;;;;;9.00;99.90;;;;;;5008676;28;19930;-80
2022/01/16 13:06:25;;;;;;;;;;;8.90;99.90;;;;;;5027103;28;19926;-80
2022/01/16 13:08:59;;;;;;;;;;;8.90;99.90;;;;;;5039539;28;19930;-79
2022/01/16 13:11:28;;;;;;;;;;;8.90;99.90;;;;;;4944643;28;19934;-82
2022/01/16 13:13:56;;;;;;;;;;;8.90;99.90;;;;;;5007456;28;19934;-81
2022/01/16 13:16:31;;;;;;;;;;;8.90;99.90;;;;;;5001423;28;19927;-78
2022/01/16 13:19:12;;;;;;;;;;;8.90;99.90;;;;;;5028004;28;19938;-81
2022/01/16 13:22:11;;;;;;;;;;;8.90;99.90;;;;;;5019772;28;20754;-82
2022/01/16 13:24:48;;;;;;;;;;;8.90;99.90;;;;;;4957972;28;20013;-82
2022/01/16 13:27:19;;;;;;;;;;;9.00;99.90;;;;;;4952911;29;19938;-81
2022/01/16 13:29:53;;;;;;;;;;;9.10;99.90;;;;;;5024399;28;19934;-81
2022/01/16 13:32:25;;;;;;;;;;;7.40;99.90;;;;;;5021940;28;19938;-81
2022/01/16 13:34:54;;;;;;;;;;;9.10;99.90;;;;;;5036419;28;20043;-80
2022/01/16 13:37:26;;;;;;;;;;;9.10;99.90;;;;;;5007097;28;19934;-81
2022/01/16 13:40:03;;;;;;;;;;;8.70;99.90;;;;;;5026395;28;20158;-83
2022/01/16 13:42:51;;;;;;;;;;;9.10;99.90;;;;;;5058211;28;19929;-83
2022/01/16 13:45:22;;;;;;;;;;;9.00;99.90;;;;;;5045010;28;19942;-81
2022/01/16 13:47:50;;;;;;;;;;;9.10;99.90;;;;;;5023956;28;19930;-81
2022/01/16 13:50:18;;;;;;;;;;;9.00;99.90;;;;;;5034507;28;19931;-80
2022/01/16 13:52:50;;;;;;;;;;;9.00;99.90;;;;;;5021727;28;19937;-82
2022/01/16 13:55:17;;;;;;;;;;;8.80;99.90;;;;;;5029569;28;19927;-83
2022/01/16 13:57:48;;;;;;;;;;;9.10;99.90;;;;;;5008875;28;19934;-84
2022/01/16 14:00:19;;;;;;;;;;;9.00;99.90;;;;;;4956570;28;20306;-83
2022/01/16 14:02:47;;;;;;;;;;;9.00;99.90;;;;;;4924845;28;19933;-82
2022/01/16 14:05:23;;;;;;;;;;;8.90;99.90;;;;;;5003223;28;20326;-81
2022/01/16 14:07:51;;;;;;;;;;;9.10;99.90;;;;;;5030563;28;20438;-82
2022/01/16 14:10:35;;;;;;;;;;;9.10;99.90;;;;;;5028819;28;20033;-81
2022/01/16 14:13:10;;;;;;;;;;;9.10;99.90;;;;;;5011559;28;19931;-81
2022/01/16 14:15:39;;;;;;;;;;;9.10;99.90;;;;;;5008049;28;19927;-81
2022/01/16 14:18:15;;;;;;;;;;;9.10;99.90;;;;;;4941807;29;20239;-81
2022/01/16 14:20:52;;;;;;;;;;;10.50;99.90;;;;;;5027202;28;19930;-81
2022/01/16 14:23:21;;;;;;;;;;;9.10;99.90;;;;;;5039287;28;20036;-81
2022/01/16 14:25:49;;;;;;;;;;;9.30;99.90;;;;;;4909016;28;19927;-82
2022/01/16 14:28:17;;;;;;;;;;;9.10;99.90;;;;;;5005539;28;19926;-82
2022/01/16 14:30:48;;;;;;;;;;;9.20;99.90;;;;;;5023636;28;20117;-82
2022/01/16 14:33:36;;;;;;;;;;;9.20;99.90;;;;;;5016236;28;19927;-81
2022/01/16 14:36:11;;;;;;;;;;;9.20;99.90;;;;;;5043936;28;19932;-82
2022/01/16 14:38:39;;;;;;;;;;;9.30;99.90;;;;;;5052868;28;19925;-83
2022/01/16 14:41:27;;;;;;;;;;;9.30;99.90;;;;;;5026963;28;19937;-83
2022/01/16 14:44:09;;;;;;;;;;;9.30;99.90;;;;;;5003891;28;19931;-82
2022/01/16 14:47:23;;;;;;;;;;;9.30;99.90;;;;;;4974023;28;19941;-82
2022/01/16 14:50:01;;;;;;;;;;;9.90;99.90;;;;;;4974722;28;19952;-82
2022/01/16 14:52:52;;;;;;;;;;;9.30;99.90;;;;;;4975951;28;19930;-84
2022/01/16 14:55:29;;;;;;;;;;;9.90;99.90;;;;;;4962175;28;19940;-81
2022/01/16 14:58:14;;;;;;;;;;;9.30;99.90;;;;;;4993892;28;19926;-83
2022/01/16 15:01:09;;;;;;;;;;;9.50;99.90;;;;;;4977814;28;19926;-81
2022/01/16 15:04:01;;;;;;;;;;;9.30;99.90;;;;;;4993515;28;19958;-84
2022/01/16 15:06:48;;;;;;;;;;;9.30;99.90;;;;;;4956867;28;19934;-83
2022/01/16 15:09:23;;;;;;;;;;;9.30;99.90;;;;;;5035590;28;19934;-81
2022/01/16 15:11:53;;;;;;;;;;;9.30;99.90;;;;;;5026465;28;20366;-82
2022/01/16 15:14:21;;;;;;;;;;;9.30;99.90;;;;;;5011382;28;19927;-82
2022/01/16 15:16:58;;;;;;;;;;;9.30;99.90;;;;;;4960360;29;19927;-81
2022/01/16 15:19:33;;;;;;;;;;;9.30;99.90;;;;;;5041524;28;19925;-81
2022/01/16 15:22:25;;;;;;;;;;;9.30;99.90;;;;;;4958921;28;19931;-81
2022/01/16 15:24:53;;;;;;;;;;;9.30;99.90;;;;;;4957868;28;19931;-82
2022/01/16 15:27:22;;;;;;;;;;;9.20;99.90;;;;;;5009760;28;19930;-84
2022/01/16 15:29:53;;;;;;;;;;;9.20;99.90;;;;;;5025587;28;19930;-82
2022/01/16 15:32:24;;;;;;;;;;;9.10;99.90;;;;;;4957903;28;19930;-84
2022/01/16 15:34:53;;;;;;;;;;;9.10;99.90;;;;;;5024519;28;19937;-84
2022/01/16 15:37:34;;;;;;;;;;;9.10;99.90;;;;;;5038493;28;19927;-85
2022/01/16 15:40:20;;;;;;;;;;;9.00;99.90;;;;;;4968422;28;19926;-82
2022/01/16 15:43:12;;;;;;;;;;;8.90;99.90;;;;;;4956365;28;19927;-81
2022/01/16 15:45:40;;;;;;;;;;;8.90;99.90;;;;;;5023689;28;19930;-82